Terminal Aerodrome Forecast
Issued by NWS

Home | Current Version | Previous Version | Text Only | Print | Product List | Glossary On
Versions: 1 2 3 4 5 6 7 8 9 10 11 12 13 14 15 16 17 18 19 20 21 22 23 24 25 26 27 28 29 30 31 32 33 34 35 36 37 38
000
FTUS44 KOUN 190128 AAA
TAFWWR
TAF AMD
KWWR 190128Z 1901/1924 10005KT P6SM VCTS FEW040 BKN090CB
     FM190200 33013KT P6SM SCT050 BKN150
     FM191500 33017G26KT P6SM BKN035=

USA.gov is the U.S. government's official web portal to all federal, state and local government web resources and services.